Time,TemperatureF,DewpointF,PressureIn,WindDirection,WindDirectionDegrees,WindSpeedMPH,WindSpeedGustMPH,Humidity,HourlyPrecipIn,Conditions,Clouds,dailyrainin,SoftwareType,DateUTC
2013-01-17 00:03:00,32.6,20.2,30.20,WSW,255,0.8,1.1,60,0.00,CLR,,0.00,WeatherDisplay:10.37,2013-01-17 06:03:00,
2013-01-17 00:08:00,32.8,20.4,30.20,West,262,1.7,2.3,60,0.00,CLR,,0.00,WeatherDisplay:10.37,2013-01-17 06:08:00,
2013-01-17 00:13:00,33.1,20.3,30.20,WNW,285,2.2,3.5,59,0.00,CLR,,0.00,WeatherDisplay:10.37,2013-01-17 06:13:00,
2013-01-17 00:18:00,33.4,20.6,30.20,West,262,2.3,3.5,59,0.00,CLR,,0.00,WeatherDisplay:10.37,2013-01-17 06:18:00,
2013-01-17 00:23:00,33.6,20.8,30.20,WNW,285,2.7,3.5,59,0.00,CLR,,0.00,WeatherDisplay:10.37,2013-01-17 06:23:00,
2013-01-17 00:28:00,33.8,20.6,30.20,WNW,293,2.5,3.5,58,0.00,CLR,,0.00,WeatherDisplay:10.37,2013-01-17 06:28:00,
2013-01-17 00:33:00,34.0,20.8,30.20,WNW,294,2.7,3.5,58,0.00,CLR,,0.00,WeatherDisplay:10.37,2013-01-17 06:33:00,
2013-01-17 00:38:00,34.0,20.8,30.21,WNW,290,3.7,3.7,58,0.00,CLR,,0.00,WeatherDisplay:10.37,2013-01-17 06:38:00,
2013-01-17 00:43:00,34.1,20.9,30.21,WNW,297,3.7,4.6,58,0.00,CLR,,0.00,WeatherDisplay:10.37,2013-01-17 06:43:00,
2013-01-17 00:48:00,34.1,20.9,30.21,WNW,287,2.7,5.0,58,0.00,CLR,,0.00,WeatherDisplay:10.37,2013-01-17 06:48:00,
2013-01-17 00:53:00,34.1,20.9,30.21,WNW,294,3.5,5.8,58,0.00,CLR,,0.00,WeatherDisplay:10.37,2013-01-17 06:53:00,
2013-01-17 00:58:00,34.0,20.8,30.21,WNW,289,3.7,3.7,58,0.00,CLR,,0.00,WeatherDisplay:10.37,2013-01-17 06:58:00,
2013-01-17 01:04:00,33.8,21.0,30.22,WNW,298,4.1,6.0,59,0.00,CLR,,0.00,WeatherDisplay:10.37,2013-01-17 07:04:00,
2013-01-17 01:09:00,33.8,21.0,30.22,WNW,288,3.4,4.6,59,0.00,CLR,,0.00,WeatherDisplay:10.37,2013-01-17 07:09:00,
2013-01-17 01:14:00,33.7,20.9,30.22,West,278,3.8,4.6,59,0.00,CLR,,0.00,WeatherDisplay:10.37,2013-01-17 07:14:00,
2013-01-17 01:19:00,33.7,20.5,30.22,West,279,5.1,5.8,58,0.00,CLR,,0.00,WeatherDisplay:10.37,2013-01-17 07:19:00,
2013-01-17 01:24:00,33.8,20.6,30.23,WNW,288,4.0,5.0,58,0.00,CLR,,0.00,WeatherDisplay:10.37,2013-01-17 07:24:00,
2013-01-17 01:29:00,34.0,20.8,30.23,WNW,288,4.7,5.8,58,0.00,CLR,,0.00,WeatherDisplay:10.37,2013-01-17 07:29:00,
2013-01-17 01:34:00,34.1,20.9,30.23,WNW,283,4.3,6.9,58,0.00,CLR,,0.00,WeatherDisplay:10.37,2013-01-17 07:34:00,
2013-01-17 01:39:00,34.3,20.6,30.23,West,279,4.9,8.1,57,0.00,CLR,,0.00,WeatherDisplay:10.37,2013-01-17 07:39:00,
2013-01-17 01:44:00,34.4,20.7,30.23,WNW,286,3.6,4.6,57,0.00,CLR,,0.00,WeatherDisplay:10.37,2013-01-17 07:44:00,
2013-01-17 01:49:00,34.3,20.6,30.24,WNW,288,2.9,4.6,57,0.00,CLR,,0.00,WeatherDisplay:10.37,2013-01-17 07:49:00,
2013-01-17 01:54:00,34.3,20.6,30.24,WNW,284,3.4,4.6,57,0.00,CLR,,0.00,WeatherDisplay:10.37,2013-01-17 07:54:00,
2013-01-17 01:59:00,34.2,20.5,30.24,WNW,283,3.5,3.5,57,0.00,CLR,,0.00,WeatherDisplay:10.37,2013-01-17 07:59:00,
2013-01-17 02:04:00,34.3,20.6,30.24,WNW,298,4.2,4.6,57,0.00,CLR,,0.00,WeatherDisplay:10.37,2013-01-17 08:04:00,
2013-01-17 02:09:00,34.3,20.6,30.24,WNW,283,2.7,3.5,57,0.00,CLR,,0.00,WeatherDisplay:10.37,2013-01-17 08:09:00,
2013-01-17 02:14:00,34.2,20.5,30.24,WNW,285,3.1,3.5,57,0.00,CLR,,0.00,WeatherDisplay:10.37,2013-01-17 08:14:00,
2013-01-17 02:19:00,34.2,20.5,30.23,WNW,287,2.9,3.5,57,0.00,CLR,,0.00,WeatherDisplay:10.37,2013-01-17 08:19:00,
2013-01-17 02:24:00,34.2,20.5,30.23,WNW,295,2.0,3.5,57,0.00,CLR,,0.00,WeatherDisplay:10.37,2013-01-17 08:24:00,
2013-01-17 02:29:00,34.3,20.6,30.23,WNW,283,3.1,4.6,57,0.00,CLR,,0.00,WeatherDisplay:10.37,2013-01-17 08:29:00,
2013-01-17 02:34:00,34.2,20.5,30.23,WNW,296,2.2,3.5,57,0.00,CLR,,0.00,WeatherDisplay:10.37,2013-01-17 08:34:00,
2013-01-17 02:39:00,34.3,20.6,30.23,WNW,293,3.0,3.5,57,0.00,CLR,,0.00,WeatherDisplay:10.37,2013-01-17 08:39:00,
2013-01-17 02:44:00,34.3,20.6,30.23,WNW,300,3.5,6.0,57,0.00,CLR,,0.00,WeatherDisplay:10.37,2013-01-17 08:44:00,
2013-01-17 02:49:00,34.3,20.6,30.23,WNW,302,4.2,5.0,57,0.00,CLR,,0.00,WeatherDisplay:10.37,2013-01-17 08:49:00,
2013-01-17 02:54:00,34.3,20.6,30.23,WNW,295,4.1,5.8,57,0.00,CLR,,0.00,WeatherDisplay:10.37,2013-01-17 08:54:00,
2013-01-17 02:59:00,34.5,20.8,30.23,WNW,301,4.4,5.8,57,0.00,CLR,,0.00,WeatherDisplay:10.37,2013-01-17 08:59:00,
2013-01-17 03:04:00,34.7,20.6,30.23,WNW,297,3.7,4.6,56,0.00,CLR,,0.00,WeatherDisplay:10.37,2013-01-17 09:04:00,
2013-01-17 03:09:00,34.7,20.6,30.23,WNW,283,2.6,3.5,56,0.00,CLR,,0.00,WeatherDisplay:10.37,2013-01-17 09:09:00,
2013-01-17 03:14:00,34.8,20.7,30.23,WNW,285,3.2,4.0,56,0.00,CLR,,0.00,WeatherDisplay:10.37,2013-01-17 09:14:00,
2013-01-17 03:19:00,34.8,20.7,30.23,WNW,291,3.0,4.6,56,0.00,CLR,,0.00,WeatherDisplay:10.37,2013-01-17 09:19:00,
2013-01-17 03:24:00,34.8,20.7,30.23,WNW,290,2.7,4.0,56,0.00,CLR,,0.00,WeatherDisplay:10.37,2013-01-17 09:24:00,
2013-01-17 03:29:00,34.7,20.6,30.23,WNW,285,3.8,4.6,56,0.00,CLR,,0.00,WeatherDisplay:10.37,2013-01-17 09:29:00,
2013-01-17 03:34:00,34.6,20.5,30.23,WNW,293,3.7,4.6,56,0.00,CLR,,0.00,WeatherDisplay:10.37,2013-01-17 09:34:00,
2013-01-17 03:39:00,34.4,20.7,30.23,WNW,283,3.7,6.0,57,0.00,CLR,,0.00,WeatherDisplay:10.37,2013-01-17 09:39:00,
2013-01-17 03:44:00,34.2,20.5,30.23,WNW,293,2.8,3.5,57,0.00,CLR,,0.00,WeatherDisplay:10.37,2013-01-17 09:44:00,
2013-01-17 03:49:00,33.9,20.7,30.23,West,279,4.0,5.0,58,0.00,CLR,,0.00,WeatherDisplay:10.37,2013-01-17 09:49:00,
2013-01-17 03:54:00,33.6,20.8,30.23,WNW,294,4.2,4.6,59,0.00,CLR,,0.00,WeatherDisplay:10.37,2013-01-17 09:54:00,
2013-01-17 03:59:00,33.6,20.8,30.24,WNW,300,4.3,4.6,59,0.00,CLR,,0.00,WeatherDisplay:10.37,2013-01-17 09:59:00,
2013-01-17 04:04:00,33.6,21.2,30.24,NW,309,3.8,5.0,60,0.00,CLR,,0.00,WeatherDisplay:10.37,2013-01-17 10:04:00,
2013-01-17 04:09:00,33.6,21.2,30.24,WNW,298,4.0,6.0,60,0.00,CLR,,0.00,WeatherDisplay:10.37,2013-01-17 10:09:00,
2013-01-17 04:14:00,33.6,21.6,30.24,WNW,283,4.8,5.0,61,0.00,CLR,,0.00,WeatherDisplay:10.37,2013-01-17 10:14:00,
2013-01-17 04:19:00,33.6,22.0,30.24,WNW,297,6.1,10.4,62,0.00,CLR,,0.00,WeatherDisplay:10.37,2013-01-17 10:19:00,
2013-01-17 04:24:00,33.5,21.9,30.24,WNW,301,5.8,8.1,62,0.00,CLR,,0.00,WeatherDisplay:10.37,2013-01-17 10:24:00,
2013-01-17 04:29:00,33.5,22.2,30.24,WNW,293,4.3,6.0,63,0.00,CLR,,0.00,WeatherDisplay:10.37,2013-01-17 10:29:00,
2013-01-17 04:34:00,33.3,22.4,30.24,WNW,285,5.6,8.1,64,0.00,CLR,,0.00,WeatherDisplay:10.37,2013-01-17 10:34:00,
2013-01-17 04:39:00,33.3,22.4,30.25,WNW,301,5.9,7.0,64,0.00,CLR,,0.00,WeatherDisplay:10.37,2013-01-17 10:39:00,
2013-01-17 04:44:00,33.2,22.7,30.25,WNW,302,5.0,10.4,65,0.00,CLR,,0.00,WeatherDisplay:10.37,2013-01-17 10:44:00,
2013-01-17 04:49:00,33.1,22.6,30.25,WNW,301,6.1,12.7,65,0.00,CLR,,0.00,WeatherDisplay:10.37,2013-01-17 10:49:00,
2013-01-17 04:54:00,33.1,23.0,30.25,NW,315,5.2,8.1,66,0.00,CLR,,0.00,WeatherDisplay:10.37,2013-01-17 10:54:00,
2013-01-17 04:59:00,33.0,23.2,30.25,NW,312,6.0,8.1,67,0.00,CLR,,0.00,WeatherDisplay:10.37,2013-01-17 10:59:00,
2013-01-17 05:04:00,32.8,23.0,30.25,WNW,293,5.4,6.0,67,0.00,CLR,,0.00,WeatherDisplay:10.37,2013-01-17 11:04:00,
2013-01-17 05:09:00,32.7,23.3,30.25,WNW,300,3.6,7.0,68,0.00,CLR,,0.00,WeatherDisplay:10.37,2013-01-17 11:09:00,
2013-01-17 05:14:00,32.7,23.6,30.26,WNW,298,5.5,8.1,69,0.00,CLR,,0.00,WeatherDisplay:10.37,2013-01-17 11:14:00,
2013-01-17 05:19:00,32.5,23.5,30.26,NW,314,6.0,6.9,69,0.00,CLR,,0.00,WeatherDisplay:10.37,2013-01-17 11:19:00,
2013-01-17 05:24:00,32.2,23.5,30.26,NW,315,4.7,6.9,70,0.00,CLR,,0.00,WeatherDisplay:10.37,2013-01-17 11:24:00,
2013-01-17 05:29:00,32.2,23.8,30.26,West,269,5.7,9.2,71,0.00,CLR,,0.00,WeatherDisplay:10.37,2013-01-17 11:29:00,
2013-01-17 05:34:00,32.0,24.0,30.26,WNW,300,5.0,9.2,72,0.00,CLR,,0.00,WeatherDisplay:10.37,2013-01-17 11:34:00,
2013-01-17 05:39:00,32.0,24.0,30.26,WNW,298,4.0,5.0,72,0.00,CLR,,0.00,WeatherDisplay:10.37,2013-01-17 11:39:00,
2013-01-17 05:44:00,31.8,24.1,30.27,WNW,284,4.8,6.0,73,0.00,CLR,,0.00,WeatherDisplay:10.37,2013-01-17 11:44:00,
2013-01-17 05:49:00,31.7,24.4,30.27,NW,308,6.0,8.0,74,0.00,CLR,,0.00,WeatherDisplay:10.37,2013-01-17 11:49:00,
2013-01-17 05:54:00,31.6,24.3,30.27,WNW,293,5.7,5.8,74,0.00,CLR,,0.00,WeatherDisplay:10.37,2013-01-17 11:54:00,
2013-01-17 05:59:00,31.6,24.6,30.27,NW,307,5.7,11.5,75,0.00,CLR,,0.00,WeatherDisplay:10.37,2013-01-17 11:59:00,
2013-01-17 06:04:00,31.6,24.9,30.27,WNW,300,4.9,6.9,76,0.00,CLR,,0.00,WeatherDisplay:10.37,2013-01-17 12:04:00,
2013-01-17 06:09:00,31.7,25.3,30.27,WNW,285,5.2,9.2,77,0.00,CLR,,0.00,WeatherDisplay:10.37,2013-01-17 12:09:00,
2013-01-17 06:14:00,31.5,25.1,30.27,NNW,330,6.2,7.0,77,0.00,CLR,,0.00,WeatherDisplay:10.37,2013-01-17 12:14:00,
2013-01-17 06:19:00,31.6,25.5,30.28,WNW,296,3.7,8.1,78,0.00,CLR,,0.00,WeatherDisplay:10.37,2013-01-17 12:19:00,
2013-01-17 06:25:00,31.6,25.5,30.28,WNW,302,2.7,4.6,78,0.00,CLR,,0.00,WeatherDisplay:10.37,2013-01-17 12:25:00,
2013-01-17 06:30:00,31.5,25.7,30.28,WNW,302,4.1,6.9,79,0.00,CLR,,0.00,WeatherDisplay:10.37,2013-01-17 12:30:00,
2013-01-17 06:35:00,31.5,26.0,30.28,NW,307,6.0,12.0,80,0.00,CLR,,0.00,WeatherDisplay:10.37,2013-01-17 12:35:00,
2013-01-17 06:40:00,31.7,26.2,30.29,NW,308,3.0,10.0,80,0.00,CLR,,0.00,WeatherDisplay:10.37,2013-01-17 12:40:00,
2013-01-17 06:45:00,31.4,25.9,30.29,NW,307,5.4,6.9,80,0.00,CLR,,0.00,WeatherDisplay:10.37,2013-01-17 12:45:00,
2013-01-17 06:50:00,31.4,26.2,30.30,NW,306,6.0,10.0,81,0.00,CLR,,0.00,WeatherDisplay:10.37,2013-01-17 12:50:00,
2013-01-17 06:55:00,31.3,26.1,30.30,NW,307,5.6,8.1,81,0.00,CLR,,0.00,WeatherDisplay:10.37,2013-01-17 12:55:00,
2013-01-17 07:00:00,31.1,26.2,30.30,WNW,298,6.1,11.5,82,0.00,CLR,,0.00,WeatherDisplay:10.37,2013-01-17 13:00:00,
2013-01-17 07:05:00,31.0,26.1,30.31,NW,312,5.0,10.0,82,0.00,CLR,,0.00,WeatherDisplay:10.37,2013-01-17 13:05:00,
2013-01-17 07:10:00,30.9,26.3,30.31,NW,311,4.3,6.0,83,0.00,CLR,,0.00,WeatherDisplay:10.37,2013-01-17 13:10:00,
2013-01-17 07:15:00,30.8,26.2,30.31,NW,313,5.0,12.0,83,0.00,CLR,,0.00,WeatherDisplay:10.37,2013-01-17 13:15:00,
2013-01-17 07:20:00,30.7,26.4,30.32,NW,316,4.6,5.8,84,0.00,CLR,,0.00,WeatherDisplay:10.37,2013-01-17 13:20:00,
2013-01-17 07:25:00,30.6,26.4,30.31,NW,313,5.0,9.0,84,0.00,CLR,,0.00,WeatherDisplay:10.37,2013-01-17 13:25:00,
2013-01-17 07:30:00,30.6,26.3,30.32,NW,319,3.0,6.0,84,0.00,CLR,,0.00,WeatherDisplay:10.37,2013-01-17 13:30:00,
2013-01-17 07:35:00,30.6,26.6,30.32,NW,315,3.0,7.0,85,0.00,CLR,,0.00,WeatherDisplay:10.37,2013-01-17 13:35:00,
2013-01-17 07:40:00,30.7,27.0,30.32,NW,311,4.8,8.1,86,0.00,CLR,,0.00,WeatherDisplay:10.37,2013-01-17 13:40:00,
2013-01-17 07:45:00,30.7,27.0,30.33,NW,318,3.0,6.0,86,0.00,CLR,,0.00,WeatherDisplay:10.37,2013-01-17 13:45:00,
2013-01-17 07:50:00,30.7,27.0,30.33,NW,314,5.0,10.0,86,0.00,CLR,,0.00,WeatherDisplay:10.37,2013-01-17 13:50:00,
2013-01-17 07:55:00,30.9,27.2,30.33,NW,315,4.3,8.1,86,0.00,CLR,,0.00,WeatherDisplay:10.37,2013-01-17 13:55:00,
2013-01-17 08:00:00,31.2,27.5,30.33,NW,322,5.1,9.2,86,0.00,CLR,,0.00,WeatherDisplay:10.37,2013-01-17 14:00:00,
2013-01-17 08:05:00,31.4,28.0,30.34,NW,311,5.9,10.4,87,0.00,CLR,,0.00,WeatherDisplay:10.37,2013-01-17 14:05:00,
2013-01-17 08:10:00,31.6,28.2,30.34,NNE,16,4.8,6.9,87,0.00,CLR,,0.00,WeatherDisplay:10.37,2013-01-17 14:10:00,
2013-01-17 08:15:00,31.8,28.4,30.34,NNW,337,5.0,13.0,87,0.00,CLR,,0.00,WeatherDisplay:10.37,2013-01-17 14:15:00,
2013-01-17 08:20:00,32.1,28.7,30.34,NNW,348,2.1,4.0,87,0.00,CLR,,0.00,WeatherDisplay:10.37,2013-01-17 14:20:00,
2013-01-17 08:25:00,32.3,28.8,30.34,NNW,337,5.0,10.0,87,0.00,CLR,,0.00,WeatherDisplay:10.37,2013-01-17 14:25:00,
2013-01-17 08:30:00,32.4,29.0,30.35,NW,326,5.0,13.0,87,0.00,CLR,,0.00,WeatherDisplay:10.37,2013-01-17 14:30:00,
2013-01-17 08:35:00,32.5,29.1,30.35,NNW,328,3.0,12.0,87,0.00,CLR,,0.00,WeatherDisplay:10.37,2013-01-17 14:35:00,
2013-01-17 08:40:00,32.5,29.1,30.35,NNW,329,3.0,14.0,87,0.00,CLR,,0.00,WeatherDisplay:10.37,2013-01-17 14:40:00,
2013-01-17 08:45:00,32.7,29.5,30.36,ENE,68,1.3,3.5,88,0.00,CLR,,0.00,WeatherDisplay:10.37,2013-01-17 14:45:00,
2013-01-17 08:50:00,32.8,29.4,30.36,NNW,339,6.0,12.0,87,0.00,CLR,,0.00,WeatherDisplay:10.37,2013-01-17 14:50:00,
2013-01-17 08:55:00,32.9,29.5,30.36,NW,322,5.0,10.0,87,0.00,CLR,,0.00,WeatherDisplay:10.37,2013-01-17 14:55:00,
2013-01-17 09:00:00,33.0,29.6,30.37,North,11,6.5,8.0,87,0.00,CLR,,0.00,WeatherDisplay:10.37,2013-01-17 15:00:00,
2013-01-17 09:05:00,32.9,29.5,30.37,NW,323,4.9,9.2,87,0.00,CLR,,0.00,WeatherDisplay:10.37,2013-01-17 15:05:00,
2013-01-17 09:10:00,32.9,29.5,30.38,NW,323,7.0,12.0,87,0.00,CLR,,0.00,WeatherDisplay:10.37,2013-01-17 15:10:00,
2013-01-17 09:15:00,32.9,29.5,30.38,NNW,330,5.4,5.8,87,0.00,CLR,,0.00,WeatherDisplay:10.37,2013-01-17 15:15:00,
2013-01-17 09:20:00,33.1,29.7,30.39,NW,316,4.2,4.2,87,0.00,CLR,,0.00,WeatherDisplay:10.37,2013-01-17 15:20:00,
2013-01-17 09:25:00,33.1,29.4,30.39,NNW,333,7.0,13.0,86,0.00,CLR,,0.00,WeatherDisplay:10.37,2013-01-17 15:25:00,
2013-01-17 09:30:00,33.1,29.7,30.39,West,277,5.4,5.4,87,0.00,CLR,,0.00,WeatherDisplay:10.37,2013-01-17 15:30:00,
2013-01-17 09:35:00,33.1,29.7,30.39,NNW,335,5.0,12.0,87,0.00,CLR,,0.00,WeatherDisplay:10.37,2013-01-17 15:35:00,
2013-01-17 09:40:00,33.2,29.8,30.39,NNW,333,3.0,9.0,87,0.00,CLR,,0.00,WeatherDisplay:10.37,2013-01-17 15:40:00,
2013-01-17 09:45:00,33.3,29.9,30.39,NNW,329,2.0,10.0,87,0.00,CLR,,0.00,WeatherDisplay:10.37,2013-01-17 15:45:00,
2013-01-17 09:50:00,33.3,29.9,30.40,NNW,336,6.0,12.0,87,0.00,CLR,,0.00,WeatherDisplay:10.37,2013-01-17 15:50:00,
2013-01-17 09:55:00,33.3,30.1,30.40,NNW,337,1.0,9.0,88,0.00,CLR,,0.00,WeatherDisplay:10.37,2013-01-17 15:55:00,
2013-01-17 10:00:00,33.5,30.0,30.41,NNW,328,6.0,9.0,87,0.00,CLR,,0.00,WeatherDisplay:10.37,2013-01-17 16:00:00,
2013-01-17 10:05:00,33.3,29.8,30.41,NNW,338,6.0,9.0,87,0.00,CLR,,0.00,WeatherDisplay:10.37,2013-01-17 16:05:00,
2013-01-17 10:10:00,33.3,30.1,30.41,NNW,337,1.0,10.0,88,0.00,CLR,,0.00,WeatherDisplay:10.37,2013-01-17 16:10:00,
2013-01-17 10:15:00,33.4,30.2,30.41,WNW,302,3.9,8.1,88,0.00,CLR,,0.00,WeatherDisplay:10.37,2013-01-17 16:15:00,
2013-01-17 10:20:00,33.3,30.1,30.41,NNW,337,5.0,8.0,88,0.00,CLR,,0.00,WeatherDisplay:10.37,2013-01-17 16:20:00,
2013-01-17 10:25:00,33.3,30.1,30.42,NNW,328,5.8,10.4,88,0.00,CLR,,0.00,WeatherDisplay:10.37,2013-01-17 16:25:00,
2013-01-17 10:30:00,33.3,30.4,30.42,NNW,336,3.0,12.0,89,0.00,CLR,,0.00,WeatherDisplay:10.37,2013-01-17 16:30:00,
2013-01-17 10:35:00,33.4,30.5,30.42,NNW,338,5.0,8.0,89,0.00,CLR,,0.00,WeatherDisplay:10.37,2013-01-17 16:35:00,
2013-01-17 10:40:00,33.5,30.6,30.42,WNW,291,1.1,2.3,89,0.00,CLR,,0.00,WeatherDisplay:10.37,2013-01-17 16:40:00,
2013-01-17 10:45:00,33.7,30.5,30.42,North,356,5.0,9.0,88,0.00,CLR,,0.00,WeatherDisplay:10.37,2013-01-17 16:45:00,
2013-01-17 10:50:00,33.7,30.5,30.42,NNW,331,2.0,9.0,88,0.00,CLR,,0.00,WeatherDisplay:10.37,2013-01-17 16:50:00,
2013-01-17 10:55:00,33.9,30.7,30.42,WNW,302,1.0,4.6,88,0.00,CLR,,0.00,WeatherDisplay:10.37,2013-01-17 16:55:00,
2013-01-17 11:00:00,34.3,31.1,30.42,NW,313,5.0,8.0,88,0.00,CLR,,0.00,WeatherDisplay:10.37,2013-01-17 17:00:00,
2013-01-17 11:05:00,34.4,31.2,30.42,NW,314,3.0,7.0,88,0.00,CLR,,0.00,WeatherDisplay:10.37,2013-01-17 17:05:00,
2013-01-17 11:10:00,34.7,31.2,30.42,WNW,301,2.8,3.5,87,0.00,CLR,,0.00,WeatherDisplay:10.37,2013-01-17 17:10:00,
2013-01-17 11:15:00,34.8,31.0,30.42,NW,319,6.0,12.0,86,0.00,CLR,,0.00,WeatherDisplay:10.37,2013-01-17 17:15:00,
2013-01-17 11:20:00,34.9,31.1,30.42,NW,309,4.4,6.9,86,0.00,CLR,,0.00,WeatherDisplay:10.37,2013-01-17 17:20:00,
2013-01-17 11:25:00,35.5,31.5,30.41,NNW,338,2.0,7.0,85,0.00,CLR,,0.00,WeatherDisplay:10.37,2013-01-17 17:25:00,
2013-01-17 11:30:00,36.2,31.5,30.41,WNW,302,3.7,8.1,83,0.00,CLR,,0.00,WeatherDisplay:10.37,2013-01-17 17:30:00,
2013-01-17 11:35:00,36.0,31.3,30.41,NE,37,3.5,6.0,83,0.00,CLR,,0.00,WeatherDisplay:10.37,2013-01-17 17:35:00,
2013-01-17 11:40:00,36.4,31.4,30.41,NNW,343,5.6,8.1,82,0.00,CLR,,0.00,WeatherDisplay:10.37,2013-01-17 17:40:00,
2013-01-17 11:45:00,36.6,31.6,30.41,NW,309,5.0,8.0,82,0.00,CLR,,0.00,WeatherDisplay:10.37,2013-01-17 17:45:00,
2013-01-17 11:50:00,36.5,31.5,30.41,WSW,257,4.7,6.0,82,0.00,CLR,,0.00,WeatherDisplay:10.37,2013-01-17 17:50:00,
2013-01-17 11:55:00,36.8,31.8,30.41,WNW,296,2.0,6.0,82,0.00,CLR,,0.00,WeatherDisplay:10.37,2013-01-17 17:55:00,
2013-01-17 12:00:00,37.3,31.7,30.41,WNW,303,3.0,8.0,80,0.00,CLR,,0.00,WeatherDisplay:10.37,2013-01-17 18:00:00,
2013-01-17 12:05:00,38.1,31.2,30.41,NW,314,5.0,8.0,76,0.00,CLR,,0.00,WeatherDisplay:10.37,2013-01-17 18:05:00,
2013-01-17 12:10:00,38.5,31.3,30.41,North,1,6.0,10.0,75,0.00,CLR,,0.00,WeatherDisplay:10.37,2013-01-17 18:10:00,
2013-01-17 12:15:00,38.4,31.5,30.41,North,11,2.2,9.2,76,0.00,CLR,,0.00,WeatherDisplay:10.37,2013-01-17 18:15:00,
2013-01-17 12:20:00,38.8,31.6,30.41,NW,304,3.3,8.1,75,0.00,CLR,,0.00,WeatherDisplay:10.37,2013-01-17 18:20:00,
2013-01-17 12:25:00,39.1,31.9,30.41,NW,310,5.0,9.0,75,0.00,CLR,,0.00,WeatherDisplay:10.37,2013-01-17 18:25:00,
2013-01-17 12:30:00,39.3,31.7,30.40,NW,305,4.7,9.2,74,0.00,CLR,,0.00,WeatherDisplay:10.37,2013-01-17 18:30:00,
2013-01-17 12:35:00,39.7,31.1,30.40,NNW,328,5.0,12.0,71,0.00,CLR,,0.00,WeatherDisplay:10.37,2013-01-17 18:35:00,
2013-01-17 12:40:00,40.3,31.6,30.40,North,354,3.1,4.6,71,0.00,CLR,,0.00,WeatherDisplay:10.37,2013-01-17 18:40:00,
2013-01-17 12:45:00,41.1,31.3,30.40,NW,316,6.5,10.4,68,0.00,CLR,,0.00,WeatherDisplay:10.37,2013-01-17 18:45:00,
2013-01-17 12:50:00,40.9,31.5,30.40,NW,306,7.0,10.0,69,0.00,CLR,,0.00,WeatherDisplay:10.37,2013-01-17 18:50:00,
2013-01-17 12:55:00,40.8,31.4,30.40,WNW,296,7.0,10.0,69,0.00,CLR,,0.00,WeatherDisplay:10.37,2013-01-17 18:55:00,
2013-01-17 13:00:00,41.2,30.7,30.40,NW,315,6.6,13.8,66,0.00,CLR,,0.00,WeatherDisplay:10.37,2013-01-17 19:00:00,
2013-01-17 13:05:00,41.7,30.8,30.40,NNW,330,5.0,12.0,65,0.00,CLR,,0.00,WeatherDisplay:10.37,2013-01-17 19:05:00,
2013-01-17 13:10:00,42.4,30.7,30.40,NW,307,5.6,10.4,63,0.00,CLR,,0.00,WeatherDisplay:10.37,2013-01-17 19:10:00,
2013-01-17 13:15:00,42.4,29.9,30.40,WNW,284,6.8,10.4,61,0.00,CLR,,0.00,WeatherDisplay:10.37,2013-01-17 19:15:00,
2013-01-17 13:20:00,42.5,30.0,30.40,NW,312,8.0,13.0,61,0.00,CLR,,0.00,WeatherDisplay:10.37,2013-01-17 19:20:00,
2013-01-17 13:25:00,42.5,29.2,30.40,NNW,345,9.3,11.5,59,0.00,CLR,,0.00,WeatherDisplay:10.37,2013-01-17 19:25:00,
2013-01-17 13:30:00,42.4,29.1,30.40,NE,47,6.7,11.5,59,0.00,CLR,,0.00,WeatherDisplay:10.37,2013-01-17 19:30:00,
2013-01-17 13:35:00,43.1,31.0,30.40,NNW,338,5.0,12.0,62,0.00,CLR,,0.00,WeatherDisplay:10.37,2013-01-17 19:35:00,
2013-01-17 13:40:00,42.8,30.7,30.40,NW,309,7.4,10.4,62,0.00,CLR,,0.00,WeatherDisplay:10.37,2013-01-17 19:40:00,
2013-01-17 13:45:00,42.8,31.1,30.40,NW,304,6.0,12.0,63,0.00,CLR,,0.00,WeatherDisplay:10.37,2013-01-17 19:45:00,
2013-01-17 13:50:00,43.1,31.0,30.40,NW,317,6.0,10.0,62,0.00,CLR,,0.00,WeatherDisplay:10.37,2013-01-17 19:50:00,
2013-01-17 13:55:00,43.2,30.6,30.39,NNW,330,5.3,5.8,61,0.00,CLR,,0.00,WeatherDisplay:10.37,2013-01-17 19:55:00,
2013-01-17 14:00:00,43.4,28.3,30.39,NW,319,6.0,12.0,55,0.00,CLR,,0.00,WeatherDisplay:10.37,2013-01-17 20:00:00,
2013-01-17 14:05:00,43.6,28.0,30.40,NE,51,4.8,9.2,54,0.00,CLR,,0.00,WeatherDisplay:10.37,2013-01-17 20:05:00,
2013-01-17 14:09:00,43.9,29.6,30.39,NW,326,3.3,5.8,57,0.00,CLR,,0.00,WeatherDisplay:10.37,2013-01-17 20:09:00,
2013-01-17 14:14:00,44.0,29.7,30.39,NNW,343,3.5,10.4,57,0.00,CLR,,0.00,WeatherDisplay:10.37,2013-01-17 20:14:00,
2013-01-17 14:19:00,43.9,29.6,30.40,NW,309,4.4,7.0,57,0.00,CLR,,0.00,WeatherDisplay:10.37,2013-01-17 20:19:00,
2013-01-17 14:24:00,44.1,28.9,30.40,WNW,301,5.4,11.5,55,0.00,CLR,,0.00,WeatherDisplay:10.37,2013-01-17 20:24:00,
2013-01-17 14:30:00,43.9,28.3,30.40,WNW,297,4.5,11.5,54,0.00,CLR,,0.00,WeatherDisplay:10.37,2013-01-17 20:30:00,
2013-01-17 14:35:00,44.4,28.3,30.40,NNW,330,3.2,6.9,53,0.00,CLR,,0.00,WeatherDisplay:10.37,2013-01-17 20:35:00,
2013-01-17 14:40:00,44.8,27.8,30.40,NNW,330,7.0,8.1,51,0.00,CLR,,0.00,WeatherDisplay:10.37,2013-01-17 20:40:00,
2013-01-17 14:45:00,44.9,27.8,30.40,NNW,345,3.0,12.0,51,0.00,CLR,,0.00,WeatherDisplay:10.37,2013-01-17 20:45:00,
2013-01-17 14:50:00,44.9,28.3,30.40,NW,305,3.2,11.5,52,0.00,CLR,,0.00,WeatherDisplay:10.37,2013-01-17 20:50:00,
2013-01-17 14:55:00,45.0,28.9,30.40,NW,318,2.0,6.0,53,0.00,CLR,,0.00,WeatherDisplay:10.37,2013-01-17 20:55:00,
2013-01-17 15:00:00,45.3,28.2,30.40,NW,311,7.0,9.0,51,0.00,CLR,,0.00,WeatherDisplay:10.37,2013-01-17 21:00:00,
2013-01-17 15:05:00,45.1,27.6,30.40,WNW,285,5.3,9.2,50,0.00,CLR,,0.00,WeatherDisplay:10.37,2013-01-17 21:05:00,
2013-01-17 15:10:00,45.1,27.6,30.40,NW,313,7.0,14.0,50,0.00,CLR,,0.00,WeatherDisplay:10.37,2013-01-17 21:10:00,
2013-01-17 15:15:00,44.9,27.8,30.40,NW,319,3.0,10.0,51,0.00,CLR,,0.00,WeatherDisplay:10.37,2013-01-17 21:15:00,
2013-01-17 15:20:00,44.9,27.8,30.40,WNW,293,4.1,7.0,51,0.00,CLR,,0.00,WeatherDisplay:10.37,2013-01-17 21:20:00,
2013-01-17 15:25:00,45.2,27.6,30.40,NW,314,5.0,7.0,50,0.00,CLR,,0.00,WeatherDisplay:10.37,2013-01-17 21:25:00,
2013-01-17 15:30:00,45.0,27.5,30.40,North,356,6.7,11.5,50,0.00,CLR,,0.00,WeatherDisplay:10.37,2013-01-17 21:30:00,
2013-01-17 15:35:00,45.2,28.6,30.41,NNW,327,2.0,9.0,52,0.00,CLR,,0.00,WeatherDisplay:10.37,2013-01-17 21:35:00,
2013-01-17 15:40:00,45.1,27.6,30.41,WNW,299,4.9,8.1,50,0.00,CLR,,0.00,WeatherDisplay:10.37,2013-01-17 21:40:00,
2013-01-17 15:45:00,45.1,27.1,30.41,NW,307,6.6,9.2,49,0.00,CLR,,0.00,WeatherDisplay:10.37,2013-01-17 21:45:00,
2013-01-17 15:50:00,44.9,27.4,30.41,NW,324,5.0,9.0,50,0.00,CLR,,0.00,WeatherDisplay:10.37,2013-01-17 21:50:00,
2013-01-17 15:55:00,44.9,27.8,30.41,NW,323,5.0,8.0,51,0.00,CLR,,0.00,WeatherDisplay:10.37,2013-01-17 21:55:00,
2013-01-17 16:00:00,45.0,27.9,30.41,NW,305,1.6,5.8,51,0.00,CLR,,0.00,WeatherDisplay:10.37,2013-01-17 22:00:00,
2013-01-17 16:05:00,45.2,28.1,30.42,NW,319,1.0,5.0,51,0.00,CLR,,0.00,WeatherDisplay:10.37,2013-01-17 22:05:00,
2013-01-17 16:10:00,45.3,28.2,30.42,NW,324,3.0,9.0,51,0.00,CLR,,0.00,WeatherDisplay:10.37,2013-01-17 22:10:00,
2013-01-17 16:15:00,44.9,28.3,30.42,NNW,328,6.1,11.5,52,0.00,CLR,,0.00,WeatherDisplay:10.37,2013-01-17 22:15:00,
2013-01-17 16:20:00,44.8,28.2,30.42,NW,320,5.0,9.0,52,0.00,CLR,,0.00,WeatherDisplay:10.37,2013-01-17 22:20:00,
2013-01-17 16:25:00,44.7,28.1,30.43,WNW,294,5.7,8.1,52,0.00,CLR,,0.00,WeatherDisplay:10.37,2013-01-17 22:25:00,
2013-01-17 16:30:00,44.5,27.5,30.43,NNW,341,3.4,5.8,51,0.00,CLR,,0.00,WeatherDisplay:10.37,2013-01-17 22:30:00,
2013-01-17 16:35:00,44.3,27.3,30.43,NNW,334,5.0,8.0,51,0.00,CLR,,0.00,WeatherDisplay:10.37,2013-01-17 22:35:00,
2013-01-17 16:40:00,44.0,27.5,30.43,WNW,300,1.6,2.3,52,0.00,CLR,,0.00,WeatherDisplay:10.37,2013-01-17 22:40:00,
2013-01-17 16:45:00,43.8,27.3,30.43,NW,321,3.0,6.0,52,0.00,CLR,,0.00,WeatherDisplay:10.37,2013-01-17 22:45:00,
2013-01-17 16:50:00,43.7,27.7,30.43,NW,315,2.0,6.0,53,0.00,CLR,,0.00,WeatherDisplay:10.37,2013-01-17 22:50:00,
2013-01-17 16:55:00,43.5,27.9,30.43,NW,308,5.0,9.0,54,0.00,CLR,,0.00,WeatherDisplay:10.37,2013-01-17 22:55:00,
2013-01-17 17:00:00,43.2,28.1,30.43,NW,317,3.0,8.0,55,0.00,CLR,,0.00,WeatherDisplay:10.37,2013-01-17 23:00:00,
2013-01-17 17:05:00,42.9,27.8,30.44,NNW,328,1.5,3.5,55,0.00,CLR,,0.00,WeatherDisplay:10.37,2013-01-17 23:05:00,
2013-01-17 17:10:00,42.6,27.5,30.44,NW,308,3.0,5.0,55,0.00,CLR,,0.00,WeatherDisplay:10.37,2013-01-17 23:10:00,
2013-01-17 17:15:00,42.3,27.7,30.44,NW,306,3.0,8.0,56,0.00,CLR,,0.00,WeatherDisplay:10.37,2013-01-17 23:15:00,
2013-01-17 17:20:00,41.9,27.4,30.44,NW,308,2.0,7.0,56,0.00,CLR,,0.00,WeatherDisplay:10.37,2013-01-17 23:20:00,
2013-01-17 17:25:00,41.5,27.0,30.44,NW,304,2.5,4.6,56,0.00,CLR,,0.00,WeatherDisplay:10.37,2013-01-17 23:25:00,
2013-01-17 17:30:00,41.3,27.2,30.44,NW,305,3.0,5.0,57,0.00,CLR,,0.00,WeatherDisplay:10.37,2013-01-17 23:30:00,
2013-01-17 17:35:00,40.9,26.8,30.45,NW,305,3.0,4.6,57,0.00,CLR,,0.00,WeatherDisplay:10.37,2013-01-17 23:35:00,
2013-01-17 17:40:00,40.6,26.5,30.45,NW,315,1.9,3.5,57,0.00,CLR,,0.00,WeatherDisplay:10.37,2013-01-17 23:40:00,
2013-01-17 17:45:00,40.3,26.2,30.45,NW,308,2.0,4.0,57,0.00,CLR,,0.00,WeatherDisplay:10.37,2013-01-17 23:45:00,
2013-01-17 17:50:00,40.0,26.4,30.45,WNW,294,3.1,7.0,58,0.00,CLR,,0.00,WeatherDisplay:10.37,2013-01-17 23:50:00,
2013-01-17 17:55:00,39.9,26.3,30.45,NW,312,2.2,3.5,58,0.00,CLR,,0.00,WeatherDisplay:10.37,2013-01-17 23:55:00,
2013-01-17 18:00:00,39.6,26.1,30.45,NW,314,2.0,5.0,58,0.00,CLR,,0.00,WeatherDisplay:10.37,2013-01-18 00:00:00,
2013-01-17 18:05:00,39.3,25.7,30.45,NW,312,3.4,4.6,58,0.00,CLR,,0.00,WeatherDisplay:10.37,2013-01-18 00:05:00,
2013-01-17 18:10:00,39.2,26.1,30.46,NW,319,2.0,4.0,59,0.00,CLR,,0.00,WeatherDisplay:10.37,2013-01-18 00:10:00,
2013-01-17 18:15:00,39.0,25.9,30.46,NW,319,2.0,5.0,59,0.00,CLR,,0.00,WeatherDisplay:10.37,2013-01-18 00:15:00,
2013-01-17 18:20:00,38.8,25.7,30.46,NW,321,3.0,7.0,59,0.00,CLR,,0.00,WeatherDisplay:10.37,2013-01-18 00:20:00,
2013-01-17 18:25:00,38.7,25.6,30.46,NW,326,2.0,5.0,59,0.00,CLR,,0.00,WeatherDisplay:10.37,2013-01-18 00:25:00,
2013-01-17 18:30:00,38.7,25.6,30.46,NW,311,3.8,5.8,59,0.00,CLR,,0.00,WeatherDisplay:10.37,2013-01-18 00:30:00,
2013-01-17 18:35:00,38.5,25.4,30.46,NW,311,3.0,3.5,59,0.00,CLR,,0.00,WeatherDisplay:10.37,2013-01-18 00:35:00,
2013-01-17 18:40:00,38.4,25.7,30.46,NW,325,2.0,4.0,60,0.00,CLR,,0.00,WeatherDisplay:10.37,2013-01-18 00:40:00,
2013-01-17 18:45:00,38.3,25.6,30.46,NW,319,2.0,5.0,60,0.00,CLR,,0.00,WeatherDisplay:10.37,2013-01-18 00:45:00,
2013-01-17 18:50:00,38.0,25.3,30.46,NNW,329,1.1,2.3,60,0.00,CLR,,0.00,WeatherDisplay:10.37,2013-01-18 00:50:00,
2013-01-17 18:55:00,37.9,25.6,30.46,NW,317,1.0,4.0,61,0.00,CLR,,0.00,WeatherDisplay:10.37,2013-01-18 00:55:00,
2013-01-17 19:00:00,37.7,25.5,30.47,NW,316,2.2,4.0,61,0.00,CLR,,0.00,WeatherDisplay:10.37,2013-01-18 01:00:00,
2013-01-17 19:05:00,37.6,25.4,30.47,NW,313,1.0,4.0,61,0.00,CLR,,0.00,WeatherDisplay:10.37,2013-01-18 01:05:00,
2013-01-17 19:10:00,37.5,25.3,30.47,NW,305,1.5,3.5,61,0.00,CLR,,0.00,WeatherDisplay:10.37,2013-01-18 01:10:00,
2013-01-17 19:15:00,37.3,25.5,30.47,NW,306,1.0,2.0,62,0.00,CLR,,0.00,WeatherDisplay:10.37,2013-01-18 01:15:00,
2013-01-17 19:20:00,37.2,25.4,30.47,NW,306,1.0,2.0,62,0.00,CLR,,0.00,WeatherDisplay:10.37,2013-01-18 01:20:00,
2013-01-17 19:25:00,37.1,25.3,30.47,WNW,299,0.0,3.0,62,0.00,CLR,,0.00,WeatherDisplay:10.37,2013-01-18 01:25:00,
2013-01-17 19:30:00,36.9,25.1,30.47,WNW,285,0.8,1.1,62,0.00,CLR,,0.00,WeatherDisplay:10.37,2013-01-18 01:30:00,
2013-01-17 19:35:00,36.6,25.2,30.47,WNW,286,1.0,1.0,63,0.00,CLR,,0.00,WeatherDisplay:10.37,2013-01-18 01:35:00,
2013-01-17 19:40:00,36.6,25.6,30.47,WNW,293,1.7,2.3,64,0.00,CLR,,0.00,WeatherDisplay:10.37,2013-01-18 01:40:00,
2013-01-17 19:45:00,36.7,25.7,30.47,WNW,302,2.0,4.0,64,0.00,CLR,,0.00,WeatherDisplay:10.37,2013-01-18 01:45:00,
2013-01-17 19:50:00,36.6,25.6,30.47,WNW,302,1.0,2.0,64,0.00,CLR,,0.00,WeatherDisplay:10.37,2013-01-18 01:50:00,
2013-01-17 19:55:00,36.6,25.9,30.47,NW,304,1.0,3.0,65,0.00,CLR,,0.00,WeatherDisplay:10.37,2013-01-18 01:55:00,
2013-01-17 20:00:00,36.6,25.9,30.48,NW,308,1.0,2.0,65,0.00,CLR,,0.00,WeatherDisplay:10.37,2013-01-18 02:00:00,
2013-01-17 20:05:00,36.5,25.8,30.47,NW,309,0.0,1.0,65,0.00,CLR,,0.00,WeatherDisplay:10.37,2013-01-18 02:05:00,
2013-01-17 20:10:00,36.2,25.6,30.48,WNW,300,0.3,1.0,65,0.00,CLR,,0.00,WeatherDisplay:10.37,2013-01-18 02:10:00,
2013-01-17 20:15:00,36.1,25.8,30.48,West,279,0.7,1.1,66,0.00,CLR,,0.00,WeatherDisplay:10.37,2013-01-18 02:15:00,
2013-01-17 20:20:00,35.9,25.6,30.48,WNW,282,0.0,0.0,66,0.00,CLR,,0.00,WeatherDisplay:10.37,2013-01-18 02:20:00,
2013-01-17 20:25:00,35.0,24.8,30.48,West,276,0.0,0.0,66,0.00,CLR,,0.00,WeatherDisplay:10.37,2013-01-18 02:25:00,
2013-01-17 20:30:00,34.3,24.8,30.49,West,276,0.0,0.0,68,0.00,CLR,,0.00,WeatherDisplay:10.37,2013-01-18 02:30:00,
2013-01-17 20:35:00,34.1,25.0,30.49,West,276,0.0,0.0,69,0.00,CLR,,0.00,WeatherDisplay:10.37,2013-01-18 02:35:00,
2013-01-17 20:40:00,34.1,25.3,30.49,West,277,0.0,0.0,70,0.00,CLR,,0.00,WeatherDisplay:10.37,2013-01-18 02:40:00,
2013-01-17 20:45:00,34.7,25.6,30.49,WNW,295,1.0,1.0,69,0.00,CLR,,0.00,WeatherDisplay:10.37,2013-01-18 02:45:00,
2013-01-17 20:50:00,35.1,25.6,30.49,NNW,336,0.8,1.1,68,0.00,CLR,,0.00,WeatherDisplay:10.37,2013-01-18 02:50:00,
2013-01-17 20:55:00,35.1,25.6,30.49,NNW,338,1.0,1.0,68,0.00,CLR,,0.00,WeatherDisplay:10.37,2013-01-18 02:55:00,
2013-01-17 21:00:00,35.1,25.6,30.49,NNW,335,0.0,1.0,68,0.00,CLR,,0.00,WeatherDisplay:10.37,2013-01-18 03:00:00,
2013-01-17 21:05:00,35.1,25.6,30.49,NNW,336,0.0,1.1,68,0.00,CLR,,0.00,WeatherDisplay:10.37,2013-01-18 03:05:00,
2013-01-17 21:10:00,35.1,25.6,30.49,NNW,335,0.0,1.1,68,0.00,CLR,,0.00,WeatherDisplay:10.37,2013-01-18 03:10:00,
2013-01-17 21:15:00,35.1,25.6,30.49,NNW,336,0.0,1.0,68,0.00,CLR,,0.00,WeatherDisplay:10.37,2013-01-18 03:15:00,
2013-01-17 21:20:00,35.2,25.7,30.49,NNW,335,0.0,0.0,68,0.00,CLR,,0.00,WeatherDisplay:10.37,2013-01-18 03:20:00,
2013-01-17 21:25:00,35.1,25.6,30.49,NNW,336,0.0,0.0,68,0.00,CLR,,0.00,WeatherDisplay:10.37,2013-01-18 03:25:00,
2013-01-17 21:30:00,35.1,25.6,30.50,NNW,337,0.0,1.0,68,0.00,CLR,,0.00,WeatherDisplay:10.37,2013-01-18 03:30:00,
2013-01-17 21:35:00,34.7,25.6,30.50,NNW,339,0.0,0.0,69,0.00,CLR,,0.00,WeatherDisplay:10.37,2013-01-18 03:35:00,
2013-01-17 21:40:00,34.3,25.5,30.49,NNW,339,0.0,0.0,70,0.00,CLR,,0.00,WeatherDisplay:10.37,2013-01-18 03:40:00,
2013-01-17 21:45:00,34.3,25.5,30.49,NNE,22,0.7,1.1,70,0.00,CLR,,0.00,WeatherDisplay:10.37,2013-01-18 03:45:00,
2013-01-17 21:50:00,34.5,25.7,30.49,NNE,30,2.4,2.4,70,0.00,CLR,,0.00,WeatherDisplay:10.37,2013-01-18 03:50:00,
2013-01-17 21:55:00,34.8,25.7,30.50,NNE,24,0.0,2.0,69,0.00,CLR,,0.00,WeatherDisplay:10.37,2013-01-18 03:55:00,
2013-01-17 22:00:00,34.7,25.6,30.49,NNE,27,0.0,0.0,69,0.00,CLR,,0.00,WeatherDisplay:10.37,2013-01-18 04:00:00,
2013-01-17 22:05:00,34.1,25.0,30.49,NNE,27,0.0,0.0,69,0.00,CLR,,0.00,WeatherDisplay:10.37,2013-01-18 04:05:00,
2013-01-17 22:10:00,33.3,24.5,30.49,NNE,27,0.0,0.0,70,0.00,CLR,,0.00,WeatherDisplay:10.37,2013-01-18 04:10:00,
2013-01-17 22:15:00,33.1,25.4,30.49,NNE,32,1.0,1.1,73,0.00,CLR,,0.00,WeatherDisplay:10.37,2013-01-18 04:15:00,
2013-01-17 22:20:00,33.9,25.5,30.49,North,11,0.8,2.3,71,0.00,CLR,,0.00,WeatherDisplay:10.37,2013-01-18 04:20:00,
2013-01-17 22:25:00,34.0,25.6,30.49,NNE,26,0.0,2.0,71,0.00,CLR,,0.00,WeatherDisplay:10.37,2013-01-18 04:25:00,
2013-01-17 22:30:00,34.1,25.3,30.49,NNE,16,0.2,1.0,70,0.00,CLR,,0.00,WeatherDisplay:10.37,2013-01-18 04:30:00,
2013-01-17 22:35:00,34.0,25.6,30.49,NNE,25,0.0,1.0,71,0.00,CLR,,0.00,WeatherDisplay:10.37,2013-01-18 04:35:00,
2013-01-17 22:40:00,34.1,25.7,30.50,NE,39,0.1,1.1,71,0.00,CLR,,0.00,WeatherDisplay:10.37,2013-01-18 04:40:00,
2013-01-17 22:45:00,34.0,25.2,30.50,NE,39,0.0,0.0,70,0.00,CLR,,0.00,WeatherDisplay:10.37,2013-01-18 04:45:00,
2013-01-17 22:50:00,33.0,25.0,30.50,NE,39,0.0,0.0,72,0.00,CLR,,0.00,WeatherDisplay:10.37,2013-01-18 04:50:00,
2013-01-17 22:55:00,32.1,24.4,30.50,NE,39,0.0,0.0,73,0.00,CLR,,0.00,WeatherDisplay:10.37,2013-01-18 04:55:00,
2013-01-17 23:01:00,30.9,24.2,30.49,NE,39,0.0,0.0,76,0.00,CLR,,0.00,WeatherDisplay:10.37,2013-01-18 05:01:00,
2013-01-17 23:02:00,30.8,24.1,30.49,NE,39,0.0,0.0,76,0.00,CLR,,0.00,WeatherDisplay:10.37,2013-01-18 05:02:00,
2013-01-17 23:03:00,30.6,23.9,30.49,NE,39,0.0,0.0,76,0.00,CLR,,0.00,WeatherDisplay:10.37,2013-01-18 05:03:00,
2013-01-17 23:08:00,30.3,24.3,30.49,NE,39,0.0,0.0,78,0.00,CLR,,0.00,WeatherDisplay:10.37,2013-01-18 05:08:00,
2013-01-17 23:13:00,30.1,24.1,30.49,NE,39,0.0,0.0,78,0.00,CLR,,0.00,WeatherDisplay:10.37,2013-01-18 05:13:00,
2013-01-17 23:18:00,30.0,24.3,30.49,NE,39,0.0,0.0,79,0.00,CLR,,0.00,WeatherDisplay:10.37,2013-01-18 05:18:00,
2013-01-17 23:23:00,30.2,24.5,30.49,NE,39,0.0,0.0,79,0.00,CLR,,0.00,WeatherDisplay:10.37,2013-01-18 05:23:00,
2013-01-17 23:28:00,30.2,24.5,30.49,NE,39,0.0,0.0,79,0.00,CLR,,0.00,WeatherDisplay:10.37,2013-01-18 05:28:00,
2013-01-17 23:33:00,30.2,24.2,30.49,NE,39,0.0,0.0,78,0.00,CLR,,0.00,WeatherDisplay:10.37,2013-01-18 05:33:00,
2013-01-17 23:38:00,30.3,24.6,30.49,NE,39,0.0,0.0,79,0.00,CLR,,0.00,WeatherDisplay:10.37,2013-01-18 05:38:00,
2013-01-17 23:43:00,30.5,24.8,30.49,NE,39,0.0,0.0,79,0.00,CLR,,0.00,WeatherDisplay:10.37,2013-01-18 05:43:00,
2013-01-17 23:48:00,30.5,24.8,30.49,NE,39,0.2,1.0,79,0.00,CLR,,0.00,WeatherDisplay:10.37,2013-01-18 05:48:00,
2013-01-17 23:53:00,30.4,25.0,30.50,NE,39,0.0,0.0,80,0.00,CLR,,0.00,WeatherDisplay:10.37,2013-01-18 05:53:00,
2013-01-17 23:58:00,30.6,25.2,30.50,NE,39,0.1,1.1,80,0.00,CLR,,0.00,WeatherDisplay:10.37,2013-01-18 05:58:00,